createdAt,value
2019-03-10T00:01:21.392Z,3.82
2019-03-10T00:03:49.825Z,3.79
2019-03-10T00:06:18.408Z,3.77
2019-03-10T00:08:46.840Z,3.73
2019-03-10T00:11:15.232Z,3.69
2019-03-10T00:13:43.667Z,3.71
2019-03-10T00:16:16.083Z,3.59
2019-03-10T00:18:43.733Z,3.58
2019-03-10T00:21:15.231Z,3.54
2019-03-10T00:23:43.636Z,3.53
2019-03-10T00:26:12.084Z,3.54
2019-03-10T00:28:40.470Z,3.57
2019-03-10T00:31:08.942Z,3.64
2019-03-10T00:33:37.313Z,3.60
2019-03-10T00:36:05.725Z,3.60
2019-03-10T00:38:39.801Z,3.65
2019-03-10T00:41:39.923Z,3.75
2019-03-10T00:44:36.489Z,3.74
2019-03-10T00:47:41.342Z,3.73
2019-03-10T00:50:32.305Z,3.71
2019-03-10T00:53:01.369Z,3.71
2019-03-10T00:55:30.004Z,3.69
2019-03-10T00:58:02.741Z,3.63
2019-03-10T01:00:31.140Z,3.66
2019-03-10T01:02:59.522Z,3.62
2019-03-10T01:05:27.983Z,3.65
2019-03-10T01:07:56.395Z,3.62
2019-03-10T01:10:24.867Z,3.56
2019-03-10T01:12:53.644Z,3.49
2019-03-10T01:15:22.107Z,3.43
2019-03-10T01:17:52.560Z,3.44
2019-03-10T01:20:20.974Z,3.39
2019-03-10T01:22:49.385Z,3.37
2019-03-10T01:25:17.887Z,3.36
2019-03-10T01:27:56.397Z,3.31
2019-03-10T01:30:19.585Z,3.35
2019-03-10T01:33:01.150Z,3.31
2019-03-10T01:35:30.197Z,3.34
2019-03-10T01:37:58.626Z,3.43
2019-03-10T01:40:27.055Z,3.47
2019-03-10T01:42:55.537Z,3.40
2019-03-10T01:45:24.402Z,3.45
2019-03-10T01:47:52.818Z,3.36
2019-03-10T01:50:21.240Z,3.36
2019-03-10T01:52:49.646Z,3.39
2019-03-10T01:55:18.061Z,3.42
2019-03-10T01:57:46.470Z,3.44
2019-03-10T02:00:17.011Z,3.51
2019-03-10T02:02:45.405Z,3.45
2019-03-10T02:05:14.090Z,3.44
2019-03-10T02:07:42.489Z,3.40
2019-03-10T02:10:13.003Z,3.37
2019-03-10T02:12:41.434Z,3.38
2019-03-10T02:15:15.943Z,3.37
2019-03-10T02:17:44.426Z,3.33
2019-03-10T02:20:15.537Z,3.30
2019-03-10T02:22:43.928Z,3.28
2019-03-10T02:25:12.548Z,3.30
2019-03-10T02:27:40.980Z,3.36
2019-03-10T02:30:12.442Z,3.38
2019-03-10T02:32:40.996Z,3.34
2019-03-10T02:35:09.540Z,3.33
2019-03-10T02:37:37.959Z,3.33
2019-03-10T02:40:09.139Z,3.28
2019-03-10T02:42:37.537Z,3.28
2019-03-10T02:45:07.855Z,3.21
2019-03-10T02:47:36.245Z,3.19
2019-03-10T02:50:06.395Z,3.16
2019-03-10T02:52:34.819Z,3.13
2019-03-10T02:55:03.213Z,3.16
2019-03-10T02:57:31.624Z,3.12
2019-03-10T03:00:00.040Z,3.14
2019-03-10T03:02:28.430Z,3.08
2019-03-10T03:04:56.966Z,3.04
2019-03-10T03:07:25.348Z,3.00
2019-03-10T03:09:53.820Z,3.04
2019-03-10T03:12:22.218Z,3.03
2019-03-10T03:14:50.946Z,2.91
2019-03-10T03:17:19.341Z,2.87
2019-03-10T03:19:47.725Z,2.89
2019-03-10T03:22:16.141Z,2.92
2019-03-10T03:24:44.541Z,2.88
2019-03-10T03:27:12.960Z,2.83
2019-03-10T03:29:41.343Z,2.82
2019-03-10T03:32:09.761Z,2.80
2019-03-10T03:34:38.162Z,2.78
2019-03-10T03:37:07.928Z,2.73
2019-03-10T03:39:38.891Z,2.74
2019-03-10T03:42:07.293Z,2.72
2019-03-10T03:44:35.709Z,2.68
2019-03-10T03:47:04.119Z,2.65
2019-03-10T03:49:32.515Z,2.58
2019-03-10T03:52:00.936Z,2.67
2019-03-10T03:54:29.335Z,2.66
2019-03-10T03:56:57.741Z,2.58
2019-03-10T03:59:26.140Z,2.61
2019-03-10T04:01:56.199Z,2.56
2019-03-10T04:04:26.786Z,2.58
2019-03-10T04:06:55.192Z,2.59
2019-03-10T04:09:23.586Z,2.60
2019-03-10T04:11:51.988Z,2.51
2019-03-10T04:14:20.365Z,2.49
2019-03-10T04:16:48.774Z,2.48
2019-03-10T04:19:17.168Z,2.51
2019-03-10T04:21:45.677Z,2.55
2019-03-10T04:24:14.090Z,2.55
2019-03-10T04:26:42.489Z,2.52
2019-03-10T04:29:10.879Z,2.53
2019-03-10T04:31:39.280Z,2.58
2019-03-10T04:34:07.671Z,2.56
2019-03-10T04:36:36.056Z,2.61
2019-03-10T04:39:09.294Z,2.58
2019-03-10T04:41:39.749Z,2.56
2019-03-10T04:44:08.184Z,2.57
2019-03-10T04:46:36.620Z,2.57
2019-03-10T04:49:05.010Z,2.47
2019-03-10T04:51:33.465Z,2.50
2019-03-10T04:54:01.889Z,2.49
2019-03-10T04:56:31.923Z,2.50
2019-03-10T04:59:00.318Z,2.52
2019-03-10T05:01:28.716Z,2.61
2019-03-10T05:03:58.747Z,2.68
2019-03-10T05:06:27.132Z,2.64
2019-03-10T05:08:56.440Z,2.62
2019-03-10T05:11:24.873Z,2.61
2019-03-10T05:13:53.250Z,2.60
2019-03-10T05:16:21.657Z,2.57
2019-03-10T05:18:50.083Z,2.50
2019-03-10T05:21:18.496Z,2.53
2019-03-10T05:23:46.919Z,2.52
2019-03-10T05:26:15.323Z,2.64
2019-03-10T05:28:46.993Z,2.60
2019-03-10T05:31:15.473Z,2.55
2019-03-10T05:33:43.889Z,2.55
2019-03-10T05:36:12.404Z,2.58
2019-03-10T05:38:40.861Z,2.60
2019-03-10T05:41:11.425Z,2.68
2019-03-10T05:43:39.832Z,2.62
2019-03-10T05:46:08.234Z,2.62
2019-03-10T05:48:36.699Z,2.64
2019-03-10T05:51:05.156Z,2.61
2019-03-10T05:53:33.573Z,2.58
2019-03-10T05:56:01.951Z,2.60
2019-03-10T05:58:30.357Z,2.56
2019-03-10T06:01:02.421Z,2.59
2019-03-10T06:03:30.820Z,2.69
2019-03-10T06:05:59.199Z,2.72
2019-03-10T06:08:27.603Z,2.74
2019-03-10T06:10:56.030Z,2.81
2019-03-10T06:13:24.457Z,2.92
2019-03-10T06:15:53.015Z,2.99
2019-03-10T06:18:21.416Z,3.03
2019-03-10T06:20:49.824Z,2.98
2019-03-10T06:23:18.250Z,3.04
2019-03-10T06:25:46.662Z,3.14
2019-03-10T06:28:16.741Z,3.29
2019-03-10T06:30:45.041Z,3.42
2019-03-10T06:33:13.423Z,3.57
2019-03-10T06:35:41.834Z,3.77
2019-03-10T06:38:10.221Z,3.97
2019-03-10T06:40:38.662Z,4.01
2019-03-10T06:43:07.043Z,4.09
2019-03-10T06:45:35.435Z,4.26
2019-03-10T06:48:03.961Z,4.24
2019-03-10T06:50:32.350Z,4.31
2019-03-10T06:53:00.903Z,4.35
2019-03-10T06:55:29.300Z,4.33
2019-03-10T06:57:59.033Z,4.34
2019-03-10T07:00:36.519Z,4.25
2019-03-10T07:03:06.957Z,4.34
2019-03-10T07:05:41.202Z,4.54
2019-03-10T07:08:09.585Z,4.90
2019-03-10T07:10:38.000Z,5.28
2019-03-10T07:13:06.470Z,5.48
2019-03-10T07:15:34.847Z,5.48
2019-03-10T07:18:03.236Z,5.54
2019-03-10T07:20:31.656Z,5.53
2019-03-10T07:23:00.051Z,5.58
2019-03-10T07:25:28.456Z,5.56
2019-03-10T07:27:58.523Z,5.48
2019-03-10T07:30:31.475Z,5.68
2019-03-10T07:33:19.985Z,6.16
2019-03-10T07:35:50.058Z,6.67
2019-03-10T07:39:55.208Z,7.04
2019-03-10T07:42:25.251Z,7.04
2019-03-10T07:45:11.760Z,8.17
2019-03-10T07:48:00.067Z,8.17
2019-03-10T07:50:36.243Z,8.86
2019-03-10T07:53:08.845Z,9.45
2019-03-10T07:56:03.236Z,9.29
2019-03-10T07:58:34.092Z,9.29
2019-03-10T08:01:13.463Z,10.99
2019-03-10T08:03:43.510Z,10.99
2019-03-10T08:07:16.329Z,11.20
2019-03-10T08:09:46.367Z,11.20
2019-03-10T08:12:16.500Z,9.88
2019-03-10T08:14:46.545Z,9.00
2019-03-10T08:17:24.521Z,8.72
2019-03-10T08:20:04.140Z,8.65
2019-03-10T08:22:34.201Z,8.28
2019-03-10T08:25:07.401Z,8.61
2019-03-10T08:28:01.193Z,8.67
2019-03-10T08:30:41.197Z,9.13
2019-03-10T08:33:17.456Z,9.06
2019-03-10T08:35:54.437Z,9.09
2019-03-10T08:38:25.134Z,9.11
2019-03-10T08:40:56.207Z,8.98
2019-03-10T08:43:29.184Z,9.54
2019-03-10T08:45:59.381Z,9.89
2019-03-10T08:48:29.761Z,10.02
2019-03-10T08:51:02.518Z,10.02
2019-03-10T08:53:39.263Z,10.02
2019-03-10T08:56:12.018Z,10.12
2019-03-10T08:58:58.426Z,9.80
2019-03-10T09:01:28.521Z,9.49
2019-03-10T09:04:07.290Z,9.52
2019-03-10T09:06:37.336Z,9.56
2019-03-10T09:09:33.902Z,9.74
2019-03-10T09:12:03.940Z,9.69
2019-03-10T09:14:33.996Z,9.84
2019-03-10T09:17:06.774Z,9.50
2019-03-10T09:19:36.814Z,9.10
2019-03-10T09:22:11.130Z,8.89
2019-03-10T09:24:53.187Z,8.78
2019-03-10T09:27:38.225Z,8.69
2019-03-10T09:30:11.589Z,8.47
2019-03-10T09:32:41.621Z,8.60
2019-03-10T09:35:16.805Z,8.58
2019-03-10T09:37:49.850Z,8.63
2019-03-10T09:40:20.241Z,8.37
2019-03-10T09:42:52.305Z,8.58
2019-03-10T09:45:22.051Z,8.52
2019-03-10T09:48:07.482Z,8.70
2019-03-10T09:50:37.523Z,8.67
2019-03-10T09:53:23.494Z,8.52
2019-03-10T09:55:56.967Z,8.32
2019-03-10T09:58:29.465Z,8.39
2019-03-10T10:01:02.414Z,8.33
2019-03-10T10:03:35.211Z,8.50
2019-03-10T10:06:05.271Z,8.71
2019-03-10T10:08:37.745Z,8.49
2019-03-10T10:11:24.445Z,8.55
2019-03-10T10:14:13.403Z,8.60
2019-03-10T10:16:53.299Z,8.64
2019-03-10T10:19:35.497Z,8.57
2019-03-10T10:22:05.565Z,8.71
2019-03-10T10:24:35.585Z,8.71
2019-03-10T10:27:11.319Z,8.90
2019-03-10T10:29:46.800Z,9.07
2019-03-10T10:32:23.810Z,9.11
2019-03-10T10:34:56.817Z,9.21
2019-03-10T10:37:29.573Z,9.16
2019-03-10T10:40:19.120Z,9.22
2019-03-10T10:42:49.135Z,9.09
2019-03-10T10:45:34.225Z,9.07
2019-03-10T10:48:10.394Z,8.68
2019-03-10T10:51:02.894Z,8.32
2019-03-10T10:53:38.710Z,8.15
2019-03-10T10:56:08.744Z,8.11
2019-03-10T10:58:38.756Z,8.00
2019-03-10T11:01:24.053Z,8.04
2019-03-10T11:03:56.997Z,8.22
2019-03-10T11:06:27.032Z,8.31
2019-03-10T11:09:12.346Z,8.38
2019-03-10T11:11:42.393Z,8.29
2019-03-10T11:14:20.905Z,8.18
2019-03-10T11:17:06.037Z,8.26
2019-03-10T11:19:52.015Z,8.52
2019-03-10T11:22:40.164Z,8.61
2019-03-10T11:25:10.353Z,8.62
2019-03-10T11:27:55.719Z,8.79
2019-03-10T11:30:41.447Z,8.98
2019-03-10T11:33:17.185Z,9.10
2019-03-10T11:35:47.272Z,8.93
2019-03-10T11:38:17.329Z,8.94
2019-03-10T11:41:04.895Z,8.96
2019-03-10T11:43:34.925Z,8.95
2019-03-10T11:46:25.264Z,9.01
2019-03-10T11:48:57.722Z,8.84
2019-03-10T11:51:42.130Z,8.82
2019-03-10T11:54:12.159Z,8.77
2019-03-10T11:56:42.360Z,8.93
2019-03-10T11:59:29.183Z,9.06
2019-03-10T12:02:16.031Z,9.33
2019-03-10T12:04:39.933Z,9.48
2019-03-10T12:07:10.009Z,9.49
2019-03-10T12:09:38.435Z,9.80
2019-03-10T12:12:13.986Z,10.00
2019-03-10T12:14:45.130Z,10.05
2019-03-10T12:17:19.142Z,10.01
2019-03-10T12:19:48.626Z,10.16
2019-03-10T12:22:22.750Z,10.21
2019-03-10T12:24:53.979Z,10.03
2019-03-10T12:27:26.840Z,10.08
2019-03-10T12:29:59.309Z,10.32
2019-03-10T12:32:29.664Z,10.60
2019-03-10T12:35:07.564Z,10.57
2019-03-10T12:37:36.001Z,10.40
2019-03-10T12:40:06.184Z,10.30
2019-03-10T12:42:45.680Z,10.20
2019-03-10T12:45:19.117Z,10.22
2019-03-10T12:47:49.753Z,10.33
2019-03-10T12:50:20.660Z,10.60
2019-03-10T12:52:50.087Z,10.41
2019-03-10T12:55:24.812Z,10.34
2019-03-10T12:57:57.097Z,9.95
2019-03-10T13:00:29.497Z,10.11
2019-03-10T13:03:03.029Z,10.14
2019-03-10T13:05:32.392Z,10.27
2019-03-10T13:08:04.503Z,10.29
2019-03-10T13:10:39.429Z,10.23
2019-03-10T13:13:07.822Z,9.92
2019-03-10T13:15:40.402Z,9.71
2019-03-10T13:18:08.799Z,9.84
2019-03-10T13:20:37.231Z,10.09
2019-03-10T13:23:08.985Z,10.09
2019-03-10T13:25:37.398Z,9.41
2019-03-10T13:28:09.656Z,9.47
2019-03-10T13:30:38.084Z,9.67
2019-03-10T13:33:11.377Z,9.76
2019-03-10T13:35:39.823Z,9.67
2019-03-10T13:38:10.783Z,9.73
2019-03-10T13:40:43.990Z,9.59
2019-03-10T13:43:14.877Z,9.52
2019-03-10T13:45:43.396Z,9.58
2019-03-10T13:48:14.261Z,9.31
2019-03-10T13:50:43.685Z,9.42
2019-03-10T13:53:19.671Z,9.21
2019-03-10T13:55:49.168Z,9.14
2019-03-10T13:58:18.688Z,8.94
2019-03-10T14:00:47.122Z,8.78
2019-03-10T14:03:15.618Z,8.52
2019-03-10T14:05:46.486Z,8.34
2019-03-10T14:08:15.869Z,8.03
2019-03-10T14:10:44.248Z,7.76
2019-03-10T14:13:16.018Z,7.73
2019-03-10T14:15:44.702Z,7.56
2019-03-10T14:18:13.104Z,7.56
2019-03-10T14:20:45.014Z,7.49
2019-03-10T14:23:13.406Z,7.40
2019-03-10T14:25:44.033Z,7.26
2019-03-10T14:28:12.519Z,7.27
2019-03-10T14:30:41.441Z,7.23
2019-03-10T14:33:12.561Z,7.26
2019-03-10T14:35:43.806Z,6.36
2019-03-10T14:38:12.284Z,7.27
2019-03-10T14:40:44.750Z,7.25
2019-03-10T14:43:17.264Z,7.19
2019-03-10T14:45:46.806Z,7.16
2019-03-10T14:48:15.179Z,7.10
2019-03-10T14:50:45.866Z,7.24
2019-03-10T14:53:13.835Z,7.23
2019-03-10T14:55:46.746Z,7.25
2019-03-10T14:58:18.025Z,7.33
2019-03-10T15:00:51.161Z,7.23
2019-03-10T15:03:19.581Z,7.23
2019-03-10T15:05:47.980Z,7.16
2019-03-10T15:08:16.384Z,6.53
2019-03-10T15:10:44.764Z,6.29
2019-03-10T15:13:13.350Z,5.93
2019-03-10T15:15:41.732Z,5.66
2019-03-10T15:18:13.213Z,5.38
2019-03-10T15:20:44.147Z,5.23
2019-03-10T15:23:12.546Z,5.01
2019-03-10T15:25:40.937Z,4.94
2019-03-10T15:28:10.427Z,4.70
2019-03-10T15:30:41.375Z,4.59
2019-03-10T15:33:10.849Z,4.55
2019-03-10T15:35:39.257Z,4.48
2019-03-10T15:38:07.649Z,4.53
2019-03-10T15:40:36.066Z,4.47
2019-03-10T15:43:04.635Z,4.51
2019-03-10T15:45:33.055Z,4.57
2019-03-10T15:48:01.444Z,4.61
2019-03-10T15:50:41.235Z,4.67
2019-03-10T15:53:12.148Z,4.58
2019-03-10T15:55:41.543Z,4.57
2019-03-10T15:58:10.793Z,4.57
2019-03-10T16:00:40.161Z,4.61
2019-03-10T16:03:11.040Z,4.57
2019-03-10T16:05:39.447Z,4.71
2019-03-10T16:08:07.928Z,4.67
2019-03-10T16:10:36.313Z,4.76
2019-03-10T16:13:04.895Z,4.71
2019-03-10T16:15:35.709Z,4.71
2019-03-10T16:18:04.178Z,4.80
2019-03-10T16:20:32.689Z,4.79
2019-03-10T16:23:03.250Z,4.82
2019-03-10T16:25:32.699Z,4.81
2019-03-10T16:28:05.081Z,4.82
2019-03-10T16:30:33.474Z,4.79
2019-03-10T16:33:05.745Z,4.79
2019-03-10T16:35:38.158Z,4.78
2019-03-10T16:38:09.959Z,4.69
2019-03-10T16:40:41.700Z,4.57
2019-03-10T16:43:14.087Z,4.55
2019-03-10T16:45:49.413Z,4.59
2019-03-10T16:48:17.777Z,4.67
2019-03-10T16:50:46.191Z,4.58
2019-03-10T16:53:14.593Z,4.60
2019-03-10T16:55:43.018Z,4.65
2019-03-10T16:58:11.460Z,4.56
2019-03-10T17:00:39.873Z,4.60
2019-03-10T17:03:08.928Z,4.57
2019-03-10T17:05:37.446Z,4.48
2019-03-10T17:08:09.313Z,4.38
2019-03-10T17:10:37.772Z,4.30
2019-03-10T17:13:07.714Z,4.32
2019-03-10T17:15:36.334Z,4.22
2019-03-10T17:18:07.791Z,4.11
2019-03-10T17:20:38.743Z,4.06
2019-03-10T17:23:11.166Z,4.06
2019-03-10T17:25:38.983Z,4.03
2019-03-10T17:28:07.425Z,3.96
2019-03-10T17:30:35.975Z,3.91
2019-03-10T17:33:04.728Z,3.84
2019-03-10T17:35:35.627Z,3.79
2019-03-10T17:38:06.648Z,3.70
2019-03-10T17:40:35.279Z,3.74
2019-03-10T17:43:08.058Z,3.70
2019-03-10T17:45:36.844Z,3.65
2019-03-10T17:48:06.553Z,3.63
2019-03-10T17:50:35.051Z,3.63
2019-03-10T17:53:03.428Z,3.62
2019-03-10T17:55:31.857Z,3.58
2019-03-10T17:58:01.538Z,3.58
2019-03-10T18:00:37.843Z,3.56
2019-03-10T18:03:06.308Z,3.57
2019-03-10T18:05:34.936Z,3.53
2019-03-10T18:08:03.843Z,3.43
2019-03-10T18:10:32.688Z,3.46
2019-03-10T18:13:01.540Z,3.41
2019-03-10T18:15:31.010Z,3.48
2019-03-10T18:17:59.556Z,3.38
2019-03-10T18:20:30.811Z,3.37
2019-03-10T18:23:00.249Z,3.43
2019-03-10T18:25:29.355Z,3.39
2019-03-10T18:27:57.847Z,3.39
2019-03-10T18:30:28.359Z,3.37
2019-03-10T18:32:56.753Z,3.35
2019-03-10T18:35:26.392Z,3.34
2019-03-10T18:37:58.913Z,3.32
2019-03-10T18:40:27.391Z,3.26
2019-03-10T18:42:56.049Z,3.29
2019-03-10T18:45:25.039Z,3.25
2019-03-10T18:47:54.133Z,3.20
2019-03-10T18:50:27.639Z,3.26
2019-03-10T18:52:57.303Z,3.25
2019-03-10T18:55:26.050Z,3.21
2019-03-10T18:57:57.347Z,3.18
2019-03-10T19:00:28.211Z,3.14
2019-03-10T19:02:59.454Z,3.09
2019-03-10T19:05:28.146Z,3.10
2019-03-10T19:07:57.465Z,3.07
2019-03-10T19:10:29.712Z,3.05
2019-03-10T19:13:00.818Z,3.07
2019-03-10T19:15:30.932Z,3.05
2019-03-10T19:17:59.945Z,2.99
2019-03-10T19:20:29.105Z,3.03
2019-03-10T19:22:58.182Z,3.01
2019-03-10T19:25:26.962Z,2.94
2019-03-10T19:28:00.980Z,2.98
2019-03-10T19:30:32.089Z,2.93
2019-03-10T19:33:00.940Z,2.94
2019-03-10T19:35:29.691Z,2.90
2019-03-10T19:37:59.380Z,2.83
2019-03-10T19:40:29.095Z,2.81
2019-03-10T19:43:02.115Z,2.76
2019-03-10T19:45:30.989Z,2.75
2019-03-10T19:48:02.131Z,2.73
2019-03-10T19:50:31.281Z,1.64
2019-03-10T19:53:01.023Z,2.72
2019-03-10T19:55:32.247Z,2.72
2019-03-10T19:58:00.787Z,2.69
2019-03-10T20:00:31.986Z,2.66
2019-03-10T20:03:00.647Z,2.69
2019-03-10T20:05:30.487Z,2.68
2019-03-10T20:07:59.234Z,2.65
2019-03-10T20:10:30.860Z,2.66
2019-03-10T20:13:01.197Z,2.66
2019-03-10T20:15:33.374Z,2.65
2019-03-10T20:18:03.392Z,2.66
2019-03-10T20:20:35.283Z,2.64
2019-03-10T20:23:03.802Z,2.64
2019-03-10T20:25:33.264Z,2.64
2019-03-10T20:28:01.718Z,2.65
2019-03-10T20:30:30.230Z,2.63
2019-03-10T20:32:58.642Z,2.57
2019-03-10T20:35:27.059Z,2.61
2019-03-10T20:37:55.456Z,2.57
2019-03-10T20:40:31.172Z,2.54
2019-03-10T20:42:58.810Z,2.50
2019-03-10T20:45:29.636Z,2.52
2019-03-10T20:47:58.081Z,2.50
2019-03-10T20:50:30.344Z,2.38
2019-03-10T20:52:58.748Z,2.41
2019-03-10T20:55:31.309Z,2.41
2019-03-10T20:57:59.695Z,2.41
2019-03-10T21:00:29.704Z,2.36
2019-03-10T21:03:00.075Z,2.37
2019-03-10T21:05:32.674Z,2.33
2019-03-10T21:08:01.063Z,2.29
2019-03-10T21:10:29.476Z,2.25
2019-03-10T21:12:57.863Z,2.24
2019-03-10T21:15:28.776Z,2.25
2019-03-10T21:17:57.193Z,2.23
2019-03-10T21:20:29.835Z,2.23
2019-03-10T21:22:58.293Z,2.10
2019-03-10T21:25:29.646Z,2.09
2019-03-10T21:27:58.064Z,2.09
2019-03-10T21:30:29.097Z,2.07
2019-03-10T21:33:00.091Z,2.06
2019-03-10T21:35:28.575Z,2.00
2019-03-10T21:37:58.058Z,2.02
2019-03-10T21:40:30.074Z,2.02
2019-03-10T21:42:58.527Z,2.03
2019-03-10T21:45:28.028Z,2.06
2019-03-10T21:47:56.441Z,2.08
2019-03-10T21:50:25.850Z,2.10
2019-03-10T21:52:54.269Z,2.06
2019-03-10T21:55:25.566Z,2.08
2019-03-10T21:57:53.987Z,2.13
2019-03-10T22:00:26.346Z,2.19
2019-03-10T22:02:54.759Z,2.29
2019-03-10T22:05:23.155Z,2.39
2019-03-10T22:07:51.575Z,2.47
2019-03-10T22:10:27.469Z,2.53
2019-03-10T22:12:53.420Z,2.66
2019-03-10T22:15:22.132Z,2.73
2019-03-10T22:17:51.608Z,2.78
2019-03-10T22:20:26.651Z,2.81
2019-03-10T22:22:55.578Z,2.91
2019-03-10T22:25:26.374Z,2.92
2019-03-10T22:27:54.780Z,2.91
2019-03-10T22:30:24.057Z,2.94
2019-03-10T22:32:52.538Z,2.94
2019-03-10T22:35:20.983Z,2.97
2019-03-10T22:37:53.151Z,3.07
2019-03-10T22:40:24.256Z,3.10
2019-03-10T22:42:55.590Z,3.13
2019-03-10T22:45:24.011Z,3.14
2019-03-10T22:47:54.777Z,3.00
2019-03-10T22:50:23.267Z,3.04
2019-03-10T22:52:51.638Z,2.92
2019-03-10T22:55:22.548Z,2.85
2019-03-10T22:57:53.746Z,2.94
2019-03-10T23:00:31.946Z,2.93
2019-03-10T23:03:04.750Z,2.96
2019-03-10T23:05:33.213Z,3.04
2019-03-10T23:08:04.574Z,3.07
2019-03-10T23:10:32.998Z,3.08
2019-03-10T23:13:01.404Z,3.09
2019-03-10T23:15:29.816Z,2.99
2019-03-10T23:17:58.238Z,2.97
2019-03-10T23:20:26.617Z,3.05
2019-03-10T23:22:57.479Z,3.06
2019-03-10T23:25:29.765Z,3.12
2019-03-10T23:28:01.969Z,3.11
2019-03-10T23:30:30.300Z,3.15
2019-03-10T23:33:03.208Z,3.11
2019-03-10T23:35:31.609Z,3.13
2019-03-10T23:38:02.125Z,3.15
2019-03-10T23:40:30.685Z,3.15
2019-03-10T23:43:05.153Z,3.15
2019-03-10T23:45:35.788Z,3.15
2019-03-10T23:48:05.140Z,3.24
2019-03-10T23:50:33.542Z,3.27
2019-03-10T23:53:02.928Z,3.26
2019-03-10T23:55:31.343Z,3.27
2019-03-10T23:58:00.579Z,3.25
